Sand Springs, Montana
Current Conditions -  °F | °C
As of 8:00 PM on Friday 19 Dec 2014 (Local Time) from KMVH Reporting Station
Overcast Overcast  
Wind Chill: 30°   Ceiling: 9500
Heat Index: 30°   Visibility: 10mi
Dew Point: 23°   Wind: 0mph
Humidity: 75%   Direction: NA
Pressure: 29.83"   Gusts: NA
Location:  47.1°N, 107.49°W
Report Text: KMVH 200300Z AUTO 00000KT 10SM SCT060 OVC095 M01/M05 A2983 RMK A01
Loading
Personal Weather Stations






























Interactive Weather Map New forecast layout! Learn more

10-Day Weather Forecast

Advertisements
Track Severe Weather on mobile